METAR Data
IDs: Format: Raw Decoded Include TAF

Data at: 1323 UTC 26 Feb 2021

EDDB 261320Z 30012KT 9999 SCT021 08/04 Q1029 NOSIG